Historyczne dane pomiarowe

Dodano dane terminowe – wersja testowa.

Dane z okresu 1951-2019

Wersja bazy: 1.34 [2019-03-16, lista zmian], aktualizacja planowana na 2019-04-15

Dane meteo z obszaru Polski uzyskane na podstawie danych udostępnionych przez Instytut Meteorologii i Gospodarki Wodnej – Państwowy Instytut Badawczy.

 

Wybierz Datę:    

       

TemperaturaWilgotnośćWiatrCiśnienieOpadyŚniegCzas trwania zjawisk
 Stacja t tx tn tng RH VA  wxwx mslp ppp RRR   cm mm wxwxwxwxwxwxwx
2019-01-31-10.9 -8.7-12.5- 82.0 2.2 3.1 7.4 4.5 0.0- 780.3 0.0 0.0 0.0201 2.6 6.8--- 2.6---
2019-01-30-10.0 -7.9-11.1- 91.1 2.6 6.0 6.6 0.0 0.0- 780.2 0.0 0.0 0.0202 2.7 3.8- 4.4- 16.8---
2019-01-29-10.0 -6.4-10.7- 91.3 2.6 4.8 5.0 0.0 0.0- 781.5 0.4 0.0 0.4205 2.6 4.2- 3.5- 10.6---
2019-01-28 -6.0 -3.7 -8.6- 94.6 3.7 7.9 9.8 11.5 0.7- 776.6 6.9 6.7 0.2201 2.7 0.0- 13.9- 23.7---
2019-01-27 -7.0 -4.6 -8.7- 93.8 3.4 7.6 12.1 16.7 9.2- 779.6 1.5 0.0 1.5200 2.7 0.7--- 21.3---
2019-01-26 -9.5 -7.8-11.8- 80.9 2.4 6.1 5.6 2.5 0.0- 782.7 0.9 0.6 0.3200 2.7 0.4- 9.8- 12.4---
2019-01-25 -8.0 -5.8 -9.4- 93.5 3.1 7.0 5.3 0.3 0.0- 784.0 0.3 0.3 0.0202 2.7 0.0- 1.1- 18.7---
2019-01-24 -7.1 -4.5-10.5- 72.9 2.6 4.9 3.0 0.0 0.0- 781.4 0.2 0.0 0.2203 2.7 2.8- 4.3- 2.6---
2019-01-23-10.2 -8.0-12.8- 40.4 1.2 4.0 2.6 0.0 0.0- 779.3 0.0 0.0 0.0210 2.7 6.1- 7.4- 2.3---
2019-01-22-12.5-10.2-14.1- 44.1 1.1 1.1 2.3 0.0 0.0- 786.9 0.0 0.0 0.0219 2.6 8.1-------
2019-01-21-12.1 -9.2-15.1- 45.5 1.1 0.5 3.6 0.0 0.0- 792.7 0.0 0.0 0.0227 2.6 8.1-------
2019-01-20-11.9 -9.3-13.6- 74.1 1.8 6.3 4.0 0.0 0.0- 790.1 0.1 0.1 0.0227 2.7 2.3- 2.3- 1.8---
2019-01-19-13.6-11.0-15.9- 69.9 1.5 4.1 4.1 0.0 0.0- 792.8 0.0 0.0 0.0235 2.6 7.1-------
2019-01-18-10.3 -4.4-13.3- 90.1 2.6 7.8 5.9 1.0 0.0- 788.5 2.2 1.7 0.5231 2.6 0.0- 16.7- 17.8---
2019-01-17 -4.7 -1.9 -6.2- 78.6 3.4 6.8 13.1 22.0 3.8- 787.5 2.2 0.0 2.2232 2.7 6.0--- 6.8---
2019-01-16 -6.0 -4.8-10.1- 94.3 3.7 7.6 9.6 11.7 0.2- 788.0 2.2 2.2 0.0232 2.6 0.0- 12.3- 15.3---
2019-01-15-12.9-10.1-16.0- 88.8 2.1 8.0 10.9 19.7 1.3- 782.8 11.2 5.2 6.0223 2.7 0.0- 24.0- 24.0---
2019-01-14-10.5 -5.8-14.6- 90.9 2.6 8.0 10.4 14.0 0.0- 773.5 10.1 4.5 5.6221 2.4 0.0- 24.0- 24.0---
2019-01-13 -7.8 -7.2 -9.1- 93.3 3.2 8.0 7.8 7.3 0.3- 780.3 4.5 1.3 3.2220 2.4 0.3- 11.8- 18.6---
2019-01-12 -9.2 -8.2-13.7- 92.0 2.8 7.9 5.5 0.0 0.0- 787.2 2.8 1.5 1.3225 2.4 0.3- 10.8- 24.0---
2019-01-11-13.7-10.6-14.9- 87.5 1.9 5.5 5.3 0.0 0.0- 789.1 3.6 0.0 3.6229 2.4 7.1- 9.4- 11.2---
2019-01-10-11.4 -9.8-12.9- 90.1 2.3 8.0 5.8 0.0 0.0- 786.8 4.2 3.4 0.8225 2.4 0.0- 23.0- 24.0---
2019-01-09 -8.9 -7.8 -9.9- 92.1 2.9 8.0 2.4 0.0 0.0- 779.8 4.1 2.8 1.3222 2.4 0.0- 24.0- 24.0---
2019-01-08 -9.5 -7.2-13.8- 91.4 2.8 7.5 6.6 4.0 0.0- 786.0 7.5 2.7 4.8213 2.3 0.4- 12.8- 21.4---
2019-01-07-14.4-12.1-19.0- 87.4 1.8 3.0 5.6 0.0 0.0- 795.5 0.8 0.0 0.8220 2.3 7.8--- 2.7---
2019-01-06-14.8-10.9-17.3- 87.0 1.7 8.0 8.1 4.8 0.0- 790.1 15.0 12.7 2.3213 2.3 0.0- 21.3- 22.3---
2019-01-05 -9.9 -7.6-12.9- 91.4 2.6 8.0 6.5 5.8 0.0- 788.9 29.6 12.9 16.7195 2.6 0.0- 24.0- 24.0---
2019-01-04-16.0-12.9-18.0- 86.0 1.5 7.8 6.1 0.0 0.0- 794.7 7.4 3.1 4.3192 2.6 2.3- 19.5- 19.9---
2019-01-03-16.1-12.8-16.8- 85.9 1.5 8.0 9.6 14.7 0.0- 791.2 23.2 15.6 7.6165 2.5-- 24.0- 24.0---
2019-01-02-11.5 -5.5-12.8- 90.0 2.3 8.0 10.3 14.6 0.0- 786.6 26.0 12.9 13.1140 2.1 0.0- 24.0- 24.0---
2019-01-01 -7.3 -3.5-12.2- 92.9 3.4 6.9 7.6 11.2 0.2- 795.7 9.3 2.6 6.7133 2.3 0.2- 13.0- 17.2---
2018-12-31 -9.5 -7.1-10.3- 91.8 2.7 8.0 6.0 0.0 0.0- 798.9 16.1 15.6 0.0119 2.4 0.0- 21.6- 21.6---
2018-12-30 -6.5 -5.2 -7.9- 94.4 3.5 7.1 4.0 0.0 0.0- 795.9 13.2 1.3 11.9105 2.4 1.7- 12.3- 18.0---
2018-12-29 -7.4 -6.7 -8.1- 93.8 3.3 8.0 4.6 0.0 0.0- 799.4 3.8 1.6 2.2106 2.3 0.0- 18.4- 21.6---
2018-12-28 -4.0 -1.3 -6.7- 96.5 4.4 8.0 5.3 0.0 0.0- 798.1 12.2 3.4 8.8 98 2.3 0.0 0.5 11.7- 22.3---
2018-12-27 -4.1 -1.2 -8.8- 96.8 4.4 7.8 5.5 0.2 0.0- 800.1 2.9 2.8 0.1 96 2.1 0.0- 12.6- 17.9---
2018-12-26 -8.8 -8.2 -9.2- 92.0 2.9 8.0 7.0 0.0 0.0- 798.3 5.5 5.0 0.5 92 2.2 0.0- 17.7- 24.0---
2018-12-25-11.7 -9.0-14.6- 89.9 2.3 8.0 4.5 0.0 0.0- 796.6 15.1 6.6 8.5 83 2.1 0.0- 24.0- 24.0---
2018-12-24 -9.4 -4.3-13.8- 91.8 2.9 8.0 7.8 6.7 0.0- 789.4 34.2 27.4 6.8 59 2.4 0.0- 22.3- 24.0---
2018-12-23 -6.1 -3.5 -6.8- 94.6 3.6 7.6 9.1 8.2 0.0- 793.9 6.5 4.2 2.3 53 2.3 0.0- 9.1- 20.8---
2018-12-22 -3.1 -1.7 -6.5- 97.5 4.8 7.8 12.0 17.8 0.8- 789.6 11.6 2.9 8.7 47 2.4 0.0- 21.2- 20.8---
2018-12-21 -6.1 -5.1 -7.5- 94.5 3.6 7.4 14.8 20.8 7.3- 794.1 4.1 2.0 2.1 46 2.5 0.0- 12.9- 17.4---
2018-12-20 -6.3 -3.7 -9.7- 79.6 3.0 7.5 10.1 18.0 0.7- 795.5 2.6 2.3 0.3 46 2.4 0.0- 8.1- 15.0---
2018-12-19 -3.5 -1.3 -5.1- 20.5 1.0 3.5 7.6 9.7 0.0- 800.1 0.0 0.0 0.0 49 2.4 7.1-------
2018-12-18 -7.0 -4.0-11.8- 54.4 1.7 5.0 5.3 0.0 0.0- 800.8 0.0 0.0 0.0 51 2.1 6.8--- 7.6---
2018-12-17 -8.0 -5.7-10.0- 68.0 2.2 3.5 5.0 0.0 0.0- 795.4 0.0 0.0 0.0 52 2.1 2.3--- 2.9---
2018-12-16-10.0 -7.6-12.2- 80.6 2.3 5.3 6.6 2.5 0.0- 791.4 0.0 0.0 0.0 54 2.1 5.0- 5.3- 12.8---
2018-12-15 -9.3 -6.8-12.4- 72.1 2.1 7.5 4.6 0.0 0.0- 793.3 1.6 1.0 0.6 54 2.1 0.1- 10.8- 7.9---
2018-12-14 -9.7 -7.4-11.8- 79.0 2.3 3.3 2.9 0.0 0.0- 794.7 0.0 0.0 0.0 55 2.1 7.3-------
2018-12-13-11.6 -5.1-12.9- 87.4 2.2 4.1 3.3 0.0 0.0- 793.9 0.0 0.0 0.0 58 1.9 7.7-------
2018-12-12-10.4 -8.7-11.1- 90.9 2.5 7.9 3.0 0.0 0.0- 791.5 5.7 5.6 0.1 53 1.8 0.0- 19.3- 22.7---
2018-12-11-10.4 -9.5-11.8- 91.0 2.5 7.5 4.8 0.5 0.0- 787.3 12.1 2.5 9.6 35 1.8 0.1- 15.8- 20.9---
2018-12-10 -8.3 -4.9-10.4- 92.8 3.0 8.0 7.5 3.2 0.0- 785.3 15.2 11.5 3.7 25 2.4 0.0- 18.3- 24.0---
2018-12-09 -5.3 -4.5 -7.6- 95.6 3.9 7.9 11.9 15.7 2.5- 782.2 5.1 1.6 3.5 22 2.0 0.0- 7.9- 20.8---
2018-12-08 -4.5 2.3 -8.4- 94.5 4.2 6.8 9.9 9.2 0.2- 787.9 3.6 3.6 0.0 20 2.4 0.1- 9.6- 13.9---
2018-12-07 -0.6 1.4 -4.8- 99.6 5.8 7.8 9.3 8.2 2.5- 794.6 3.7 0.0 3.7 22 1.9 0.0- 1.2- 14.3---
2018-12-06 -7.5 -3.7-11.1- 73.0 2.6 4.8 6.1 1.5 0.0- 799.1 2.1 0.0 2.1 22 1.8 5.6- 2.5- 2.1---
2018-12-05-10.5 -5.0-12.5- 90.4 2.5 5.0 7.5 1.8 0.0- 799.9 0.1 0.1 0.0 23 1.9 2.7- 5.9- 12.3---
2018-12-04 -2.2 0.1 -5.0- 98.4 5.2 8.0 8.0 5.2 0.0- 792.3 16.5 7.1 9.4 8 2.6 0.0 1.0 13.1- 24.0---
2018-12-03 -0.6 0.6 -5.8- 99.6 5.9 7.8 9.9 13.8 0.0- 790.5 1.5 0.0 1.5 9 2.3 0.5--- 20.0---
414.5 ms

 

Źródłem pochodzenia danych jest Instytut Meteorologii i Gospodarki Wodnej – Państwowy Instytut Badawczy. Dane Instytutu Meteorologii i Gospodarki Wodnej – Państwowego Instytutu Badawczego zostały przetworzone.

Dane źródłowe można odnaleźć na stronie https://dane.imgw.pl